createdAt,value
2023-03-23T15:58:16.649Z,3.13
2023-03-23T16:00:49.470Z,3.10
2023-03-23T16:03:22.570Z,3.10
2023-03-23T16:05:52.415Z,3.13
2023-03-23T16:08:21.677Z,3.10
2023-03-23T16:10:53.002Z,3.15
2023-03-23T16:13:23.041Z,3.30
2023-03-23T16:15:52.890Z,3.17
2023-03-23T16:18:24.087Z,2.65
2023-03-23T16:20:53.700Z,2.50
2023-03-23T16:23:22.893Z,2.78
2023-03-23T16:25:53.895Z,2.90
2023-03-23T16:28:23.137Z,2.78
2023-03-23T16:30:52.744Z,2.83
2023-03-23T16:33:22.639Z,2.70
2023-03-23T16:38:21.592Z,2.92
2023-03-23T16:40:52.611Z,3.22
2023-03-23T16:43:22.450Z,2.90
2023-03-23T16:45:52.012Z,2.50
2023-03-23T16:48:21.266Z,2.60
2023-03-23T16:50:52.490Z,2.60
2023-03-23T16:53:21.935Z,2.58
2023-03-23T16:55:55.017Z,3.30
2023-03-23T16:58:27.593Z,3.05
2023-03-23T17:00:57.132Z,1.50
2023-03-23T17:03:26.630Z,1.58
2023-03-23T17:05:56.604Z,1.75
2023-03-23T17:08:26.212Z,1.60
2023-03-23T17:10:57.586Z,1.52
2023-03-23T17:13:28.478Z,2.50
2023-03-23T17:16:01.761Z,2.03
2023-03-23T17:18:31.643Z,1.85
2023-03-23T17:21:01.681Z,1.63
2023-03-23T17:23:31.034Z,2.10
2023-03-23T17:26:02.022Z,1.45
2023-03-23T17:28:31.381Z,1.67
2023-03-23T17:31:00.924Z,1.40
2023-03-23T17:33:30.524Z,2.00
2023-03-23T17:36:00.144Z,1.85
2023-03-23T17:38:29.459Z,1.73
2023-03-23T17:41:01.633Z,2.10
2023-03-23T17:43:31.950Z,2.42
2023-03-23T17:46:02.565Z,2.60
2023-03-23T17:48:31.926Z,2.50
2023-03-23T17:51:02.510Z,2.03
2023-03-23T17:56:04.464Z,3.22
2023-03-23T17:58:35.290Z,2.65
2023-03-23T18:01:05.685Z,3.38
2023-03-23T18:03:35.260Z,3.28
2023-03-23T18:06:08.299Z,3.55
2023-03-23T18:08:38.774Z,3.78
2023-03-23T18:11:10.932Z,3.65
2023-03-23T18:13:40.579Z,2.92
2023-03-23T18:16:11.242Z,2.88
2023-03-23T18:18:40.724Z,3.00
2023-03-23T18:21:12.106Z,3.10
2023-03-23T18:23:52.941Z,3.60
2023-03-23T18:26:28.507Z,3.22
2023-03-23T18:28:58.662Z,3.10
2023-03-23T18:33:58.488Z,3.10
2023-03-23T18:36:28.902Z,3.00
2023-03-23T18:38:59.222Z,2.80
2023-03-23T18:41:30.434Z,3.85
2023-03-23T18:44:00.457Z,3.75
2023-03-23T18:48:59.360Z,6.10
2023-03-23T18:51:31.053Z,5.38
2023-03-23T18:54:00.402Z,5.72
2023-03-23T18:56:31.627Z,5.70
2023-03-23T18:59:01.008Z,6.13
2023-03-23T19:01:30.981Z,6.55
2023-03-23T19:04:00.364Z,6.13
2023-03-23T19:06:30.213Z,7.15
2023-03-23T19:08:59.610Z,6.13
2023-03-23T19:11:30.857Z,8.93
2023-03-23T19:14:02.837Z,7.00
2023-03-23T19:16:35.923Z,5.10
2023-03-23T19:19:08.311Z,4.95
2023-03-23T19:21:39.837Z,5.20
2023-03-23T19:24:10.308Z,5.53
2023-03-23T19:26:43.433Z,5.50
2023-03-23T19:31:48.495Z,5.07
2023-03-23T19:34:18.226Z,5.68
2023-03-23T19:36:53.714Z,5.10
2023-03-23T19:39:25.508Z,4.80
2023-03-23T19:41:56.934Z,4.90
2023-03-23T19:44:26.562Z,4.60
2023-03-23T19:46:56.726Z,4.93
2023-03-23T19:49:26.765Z,4.70
2023-03-23T19:54:42.287Z,4.13
2023-03-23T19:57:14.139Z,3.75
2023-03-23T19:59:44.301Z,3.30
2023-03-23T20:02:14.989Z,3.13
2023-03-23T20:04:45.503Z,3.33
2023-03-23T20:07:15.714Z,2.58
2023-03-23T20:09:45.075Z,2.80
2023-03-23T20:12:16.904Z,2.70
2023-03-23T20:14:46.278Z,2.50
2023-03-23T20:17:15.796Z,2.20
2023-03-23T20:19:45.136Z,2.20
2023-03-23T20:22:15.607Z,1.80
2023-03-23T20:24:47.297Z,2.22
2023-03-23T20:27:19.030Z,2.50
2023-03-23T20:29:48.413Z,2.05
2023-03-23T20:32:17.911Z,2.35
2023-03-23T20:34:49.361Z,1.50
2023-03-23T20:37:20.868Z,1.95
2023-03-23T20:39:50.322Z,2.05
2023-03-23T20:42:21.608Z,1.83
2023-03-23T20:44:50.870Z,4.85
2023-03-23T20:47:20.555Z,3.10
2023-03-23T20:49:53.318Z,3.05
2023-03-23T20:52:24.018Z,11.23
2023-03-23T20:54:53.606Z,18.90
2023-03-23T20:57:25.484Z,21.63
2023-03-23T20:59:55.488Z,18.55
2023-03-23T21:04:55.626Z,7.88
2023-03-23T21:07:27.567Z,4.20
2023-03-23T21:09:58.116Z,3.20
2023-03-23T21:12:29.149Z,3.70
2023-03-23T21:14:58.471Z,3.90
2023-03-23T21:17:28.043Z,4.18
2023-03-23T21:19:57.598Z,3.90
2023-03-23T21:22:27.462Z,4.40
2023-03-23T21:24:56.736Z,4.05
2023-03-23T21:27:27.720Z,4.30
2023-03-23T21:29:59.525Z,3.70
2023-03-23T21:32:29.680Z,2.92
2023-03-23T21:35:02.517Z,3.35
2023-03-23T21:37:32.707Z,3.40
2023-03-23T21:40:01.980Z,3.72
2023-03-23T21:42:33.002Z,3.50
2023-03-23T21:45:03.981Z,3.42
2023-03-23T21:47:33.890Z,2.97
2023-03-23T21:50:04.877Z,2.90
2023-03-23T21:52:34.993Z,2.50
2023-03-23T21:55:04.756Z,2.38
2023-03-23T21:57:37.135Z,2.58
2023-03-23T22:00:08.383Z,2.63
2023-03-23T22:02:38.014Z,2.75
2023-03-23T22:05:07.598Z,2.30
2023-03-23T22:07:39.262Z,2.58
2023-03-23T22:10:10.414Z,2.90
2023-03-23T22:12:42.368Z,2.60
2023-03-23T22:15:15.245Z,2.40
2023-03-23T22:17:45.061Z,2.55
2023-03-23T22:20:15.796Z,2.80
2023-03-23T22:22:45.535Z,2.28
2023-03-23T22:25:15.048Z,2.80
2023-03-23T22:27:46.120Z,2.88
2023-03-23T22:30:16.204Z,2.60
2023-03-23T22:32:45.907Z,2.30
2023-03-23T22:35:15.203Z,2.50
2023-03-23T22:37:44.850Z,2.65
2023-03-23T22:40:14.354Z,2.38
2023-03-23T22:42:45.463Z,2.30
2023-03-23T22:45:14.905Z,2.50
2023-03-23T22:47:44.511Z,2.33
2023-03-23T22:50:13.852Z,2.00
2023-03-23T22:52:43.429Z,1.95
2023-03-23T22:55:12.787Z,1.93
2023-03-23T22:57:42.365Z,2.20
2023-03-23T23:00:15.646Z,1.93
2023-03-23T23:02:45.681Z,1.80
2023-03-23T23:05:15.789Z,2.30
2023-03-23T23:07:45.424Z,2.22
2023-03-23T23:10:14.803Z,3.00
2023-03-23T23:12:45.956Z,2.50
2023-03-23T23:15:16.856Z,2.10
2023-03-23T23:17:46.665Z,2.13
2023-03-23T23:20:17.030Z,2.17
2023-03-23T23:22:47.179Z,2.10
2023-03-23T23:25:16.506Z,1.92
2023-03-23T23:27:46.673Z,2.08
2023-03-23T23:30:17.508Z,2.97
2023-03-23T23:32:47.382Z,2.50
2023-03-23T23:35:16.834Z,2.60
2023-03-23T23:37:46.463Z,2.53
2023-03-23T23:40:16.914Z,2.43
2023-03-23T23:42:48.984Z,2.50
2023-03-23T23:45:20.657Z,2.70
2023-03-23T23:47:50.462Z,2.50
2023-03-23T23:50:20.079Z,2.60
2023-03-23T23:52:50.793Z,2.70
2023-03-23T23:57:50.863Z,3.35
